KBGR 221153Z 32009KT 10SM BKN180 BKN250 M02/M08 A3063 RMK AO2 SLP374 T10171078 10022 21017 53030 $